Time;durP1;ratioP1;P1;durP2;ratioP2;P2;SDS_P1;SDS_P2;PMS_P1;PMS_P2;Temp;Humidity;BMP_temperature;BMP_pressure;BME280_temperature;BME280_humidity;BME280_pressure;Samples;Min_cycle;Max_cycle;Signal;HPM_P1;HPM_P2
2021/01/04 00:02:26;;;;;;;28.80;19.70;;;6.40;68.60;;;;;;4900860;29;20992;-77
2021/01/04 00:05:20;;;;;;;24.20;19.13;;;6.40;68.50;;;;;;4900126;29;20551;-76
2021/01/04 00:08:19;;;;;;;26.97;19.70;;;6.40;68.20;;;;;;4897063;29;20473;-76
2021/01/04 00:11:23;;;;;;;36.73;23.07;;;6.40;68.40;;;;;;4900655;29;20471;-77
2021/01/04 00:14:00;;;;;;;28.00;19.00;;;6.40;68.30;;;;;;4866302;29;21730;-76
2021/01/04 00:16:36;;;;;;;29.10;21.17;;;6.50;68.30;;;;;;4900342;29;20465;-77
2021/01/04 00:19:10;;;;;;;26.83;19.87;;;6.40;68.20;;;;;;4898058;29;20470;-77
2021/01/04 00:21:47;;;;;;;26.50;19.83;;;6.40;67.90;;;;;;4900116;29;20501;-78
2021/01/04 00:24:21;;;;;;;30.93;21.53;;;6.50;67.90;;;;;;4899351;29;20463;-77
2021/01/04 00:26:54;;;;;;;31.07;21.60;;;6.40;67.70;;;;;;4899380;29;20467;-76
2021/01/04 00:29:21;;;;;;;28.60;20.80;;;6.40;67.60;;;;;;4900428;29;20853;-77
2021/01/04 00:31:55;;;;;;;30.30;20.73;;;6.40;67.60;;;;;;4899561;29;20467;-76
2021/01/04 00:34:26;;;;;;;25.43;18.33;;;6.40;67.50;;;;;;4900385;29;20468;-76
2021/01/04 00:37:11;;;;;;;26.13;20.23;;;6.40;67.80;;;;;;4899138;29;20836;-76
2021/01/04 00:39:48;;;;;;;35.70;21.57;;;6.40;67.60;;;;;;4897859;29;20808;-76
2021/01/04 00:42:29;;;;;;;29.37;21.63;;;6.40;67.70;;;;;;4899939;29;20937;-75
2021/01/04 00:45:07;;;;;;;29.17;19.87;;;6.40;67.40;;;;;;4899568;29;20478;-78
2021/01/04 00:47:46;;;;;;;37.70;22.20;;;6.40;67.50;;;;;;4899817;29;20479;-76
2021/01/04 00:50:22;;;;;;;29.77;22.03;;;6.40;67.70;;;;;;4894810;29;20479;-77
2021/01/04 00:53:01;;;;;;;29.50;20.60;;;6.40;67.60;;;;;;4898045;29;20462;-77
2021/01/04 00:55:46;;;;;;;30.90;21.90;;;6.40;67.80;;;;;;4899392;29;20960;-77
2021/01/04 00:58:48;;;;;;;31.50;23.60;;;6.40;68.00;;;;;;4882629;29;20461;-77
2021/01/04 01:01:19;;;;;;;31.47;21.37;;;6.40;68.00;;;;;;4855602;29;20516;-77
2021/01/04 01:04:00;;;;;;;31.90;22.40;;;6.40;67.90;;;;;;4883704;29;20976;-77
2021/01/04 01:06:33;;;;;;;33.00;22.47;;;6.40;67.90;;;;;;4900015;29;20455;-77
2021/01/04 01:09:01;;;;;;;38.30;22.53;;;6.30;67.90;;;;;;4895018;29;20490;-76
2021/01/04 01:11:54;;;;;;;33.20;23.00;;;6.30;68.00;;;;;;4899274;29;20457;-77
2021/01/04 01:14:28;;;;;;;35.63;21.90;;;6.30;68.30;;;;;;4880978;29;20456;-76
2021/01/04 01:17:12;;;;;;;30.80;22.20;;;6.30;68.30;;;;;;4896812;29;20479;-76
2021/01/04 01:19:46;;;;;;;30.97;20.63;;;6.40;68.30;;;;;;4899080;29;20463;-76
2021/01/04 01:22:15;;;;;;;33.00;21.70;;;6.40;68.30;;;;;;4898281;29;20585;-77
2021/01/04 01:24:43;;;;;;;24.80;20.30;;;6.30;68.10;;;;;;4899338;29;20460;-76
2021/01/04 01:27:31;;;;;;;30.93;22.30;;;6.30;68.20;;;;;;4898926;29;20475;-77
2021/01/04 01:30:28;;;;;;;31.87;22.73;;;6.30;68.20;;;;;;4899374;29;20452;-77
2021/01/04 01:33:24;;;;;;;28.57;20.40;;;6.30;68.30;;;;;;4897282;29;20472;-76
2021/01/04 01:36:11;;;;;;;35.67;25.60;;;6.40;68.20;;;;;;4898077;29;20464;-76
2021/01/04 01:39:13;;;;;;;32.03;22.93;;;6.40;68.20;;;;;;4882962;29;20475;-77
2021/01/04 01:42:10;;;;;;;37.53;25.37;;;6.40;68.10;;;;;;4898714;29;20498;-77
2021/01/04 01:44:43;;;;;;;33.73;22.77;;;6.50;68.10;;;;;;4896810;29;20472;-77
2021/01/04 01:47:16;;;;;;;30.10;23.40;;;6.50;67.90;;;;;;4899496;29;20516;-77
2021/01/04 01:49:56;;;;;;;31.17;23.50;;;6.50;68.00;;;;;;4894867;29;20982;-76
2021/01/04 01:52:51;;;;;;;30.20;22.07;;;6.50;68.10;;;;;;4896208;29;20470;-77
2021/01/04 01:55:36;;;;;;;35.90;22.43;;;6.50;68.30;;;;;;4898292;29;20882;-76
2021/01/04 01:58:42;;;;;;;32.53;21.77;;;6.40;68.10;;;;;;4898503;29;20503;-75
2021/01/04 02:01:15;;;;;;;35.97;23.77;;;6.40;67.90;;;;;;4880262;29;20917;-76
2021/01/04 02:03:49;;;;;;;32.30;24.80;;;6.40;68.10;;;;;;4897449;29;20477;-76
2021/01/04 02:06:34;;;;;;;30.57;22.83;;;6.40;68.20;;;;;;4881123;29;20500;-76
2021/01/04 02:09:06;;;;;;;31.40;22.43;;;6.40;68.30;;;;;;4897045;29;20467;-75
2021/01/04 02:11:45;;;;;;;30.80;24.40;;;6.40;68.30;;;;;;4897598;29;20483;-76
2021/01/04 02:14:17;;;;;;;29.33;22.17;;;6.40;68.30;;;;;;4897507;29;20467;-76
2021/01/04 02:16:58;;;;;;;35.47;24.93;;;6.40;68.20;;;;;;4897853;29;20470;-76
2021/01/04 02:19:39;;;;;;;30.33;22.77;;;6.40;68.20;;;;;;4883978;29;20464;-77
2021/01/04 02:22:40;;;;;;;33.10;23.53;;;6.40;68.10;;;;;;4898337;29;20499;-76
2021/01/04 02:25:08;;;;;;;33.07;23.70;;;6.40;68.10;;;;;;4887582;29;20456;-75
2021/01/04 02:27:39;;;;;;;30.70;22.87;;;6.40;67.90;;;;;;4898251;29;20455;-76
2021/01/04 02:30:06;;;;;;;29.50;22.20;;;6.40;68.00;;;;;;4897778;29;20477;-76
2021/01/04 02:32:33;;;;;;;30.43;22.77;;;6.40;68.10;;;;;;4898272;29;20548;-76
2021/01/04 02:34:59;;;;;;;30.53;21.33;;;6.40;68.20;;;;;;4897515;29;20835;-76
2021/01/04 02:37:27;;;;;;;34.70;23.33;;;6.40;68.30;;;;;;4895707;29;20476;-76
2021/01/04 02:39:56;;;;;;;31.33;22.67;;;6.40;68.30;;;;;;4898007;29;21274;-76
2021/01/04 02:42:26;;;;;;;29.20;21.70;;;6.40;68.20;;;;;;4897452;29;21004;-77
2021/01/04 02:44:54;;;;;;;30.40;21.53;;;6.40;68.00;;;;;;4897062;29;21057;-76
2021/01/04 02:47:41;;;;;;;31.40;22.87;;;6.50;67.90;;;;;;4897961;29;20464;-76
2021/01/04 02:50:22;;;;;;;33.47;23.00;;;6.40;67.80;;;;;;4897173;29;20558;-77
2021/01/04 02:53:10;;;;;;;27.57;20.40;;;6.40;67.90;;;;;;4896328;29;20467;-76
2021/01/04 02:55:49;;;;;;;34.97;23.13;;;6.40;68.00;;;;;;4896588;29;20479;-74
2021/01/04 02:58:26;;;;;;;30.20;22.37;;;6.40;68.10;;;;;;4883111;29;20469;-75
2021/01/04 03:01:00;;;;;;;32.67;23.17;;;6.30;68.10;;;;;;4897683;29;20467;-76
2021/01/04 03:03:27;;;;;;;32.67;23.40;;;6.40;68.20;;;;;;4895136;29;20495;-76
2021/01/04 03:05:54;;;;;;;34.40;22.70;;;6.40;68.10;;;;;;4897375;29;20471;-77
2021/01/04 03:08:21;;;;;;;30.93;22.30;;;6.50;67.90;;;;;;4897119;29;20463;-77
2021/01/04 03:10:48;;;;;;;31.27;23.37;;;6.50;67.80;;;;;;4897015;29;20996;-78
2021/01/04 03:13:40;;;;;;;31.77;22.20;;;6.40;67.80;;;;;;4897343;29;20467;-77
2021/01/04 03:16:13;;;;;;;34.93;22.37;;;6.40;67.60;;;;;;4896992;29;20459;-74
2021/01/04 03:18:46;;;;;;;27.47;20.83;;;6.30;67.80;;;;;;4891587;29;20471;-76
2021/01/04 03:21:13;;;;;;;34.23;23.23;;;6.30;68.00;;;;;;4896254;29;20480;-75
2021/01/04 03:23:46;;;;;;;30.20;22.87;;;6.30;68.20;;;;;;4897735;29;20952;-77
2021/01/04 03:26:18;;;;;;;30.80;21.90;;;6.40;68.30;;;;;;4896581;29;20479;-77
2021/01/04 03:28:46;;;;;;;30.37;23.07;;;6.40;68.20;;;;;;4893998;29;20467;-76
2021/01/04 03:31:12;;;;;;;31.80;22.80;;;6.40;68.20;;;;;;4897859;29;20456;-74
2021/01/04 03:33:39;;;;;;;36.53;23.80;;;6.30;68.10;;;;;;4897395;29;20474;-75
2021/01/04 03:36:06;;;;;;;31.60;22.60;;;6.40;68.20;;;;;;4896816;29;20979;-76
2021/01/04 03:38:34;;;;;;;31.13;23.93;;;6.30;68.10;;;;;;4896705;29;20466;-77
2021/01/04 03:41:02;;;;;;;33.20;21.83;;;6.30;68.10;;;;;;4896552;29;20478;-77
2021/01/04 03:43:29;;;;;;;34.20;24.17;;;6.30;68.30;;;;;;4897043;29;20491;-75
2021/01/04 03:45:56;;;;;;;34.70;23.40;;;6.30;68.30;;;;;;4898255;29;20486;-75
2021/01/04 03:48:23;;;;;;;28.73;21.93;;;6.20;68.00;;;;;;4896894;29;20481;-75
2021/01/04 03:50:49;;;;;;;28.60;20.33;;;6.20;68.10;;;;;;4897454;29;20459;-75
2021/01/04 03:53:16;;;;;;;32.80;22.43;;;6.20;68.20;;;;;;4897742;29;20472;-75
2021/01/04 03:55:43;;;;;;;29.83;21.00;;;6.20;68.30;;;;;;4894847;29;20476;-75
2021/01/04 03:58:11;;;;;;;30.93;22.20;;;6.20;68.10;;;;;;4896659;29;20491;-75
2021/01/04 04:00:38;;;;;;;31.77;22.57;;;6.30;67.90;;;;;;4896286;29;20524;-75
2021/01/04 04:03:06;;;;;;;28.80;21.33;;;6.30;68.00;;;;;;4897655;29;20506;-78
2021/01/04 04:05:32;;;;;;;29.70;22.13;;;6.20;68.00;;;;;;4896226;29;20467;-79
2021/01/04 04:08:00;;;;;;;30.10;22.03;;;6.30;68.10;;;;;;4896844;29;20468;-75
2021/01/04 04:10:26;;;;;;;30.30;21.53;;;6.20;68.20;;;;;;4897015;29;20495;-75
2021/01/04 04:12:53;;;;;;;35.17;23.47;;;6.30;68.30;;;;;;4896962;29;20459;-75
2021/01/04 04:15:20;;;;;;;28.87;21.83;;;6.20;68.30;;;;;;4896458;29;20476;-75
2021/01/04 04:17:48;;;;;;;31.50;22.67;;;6.30;68.30;;;;;;4896858;29;20517;-76
2021/01/04 04:20:18;;;;;;;27.60;22.33;;;6.30;68.10;;;;;;4895364;29;20476;-74
2021/01/04 04:22:47;;;;;;;31.37;21.67;;;6.40;68.20;;;;;;4895061;29;20491;-77
2021/01/04 04:25:15;;;;;;;31.53;25.63;;;6.40;68.10;;;;;;4895187;29;20533;-75
2021/01/04 04:27:41;;;;;;;29.17;21.40;;;6.40;68.00;;;;;;4899851;29;20453;-75
2021/01/04 04:30:10;;;;;;;30.63;22.93;;;6.40;67.90;;;;;;4898670;29;20468;-75
2021/01/04 04:32:37;;;;;;;25.33;21.63;;;6.40;67.80;;;;;;4900353;29;20970;-77
2021/01/04 04:35:04;;;;;;;32.53;23.60;;;6.40;67.80;;;;;;4900200;29;20942;-76
2021/01/04 04:37:32;;;;;;;32.90;23.80;;;6.40;68.40;;;;;;4899648;29;20481;-77
2021/01/04 04:39:58;;;;;;;31.67;24.40;;;6.40;67.70;;;;;;4900066;29;20464;-77
2021/01/04 04:42:25;;;;;;;31.30;21.77;;;6.40;67.70;;;;;;4900087;29;20845;-76
2021/01/04 04:44:58;;;;;;;29.63;21.77;;;6.40;67.70;;;;;;4899893;29;20448;-75
2021/01/04 04:47:52;;;;;;;32.80;22.17;;;6.40;67.60;;;;;;4881742;29;20515;-75
2021/01/04 04:50:32;;;;;;;30.87;24.10;;;6.40;67.50;;;;;;4873848;29;20488;-75
2021/01/04 04:53:23;;;;;;;29.17;22.70;;;6.40;67.60;;;;;;4895897;29;20475;-75
2021/01/04 04:56:12;;;;;;;30.77;22.20;;;6.40;67.70;;;;;;4900219;29;20471;-75
2021/01/04 04:58:46;;;;;;;26.27;23.40;;;6.40;67.60;;;;;;4899289;29;20471;-75
2021/01/04 05:01:35;;;;;;;28.83;21.17;;;6.50;67.70;;;;;;4899949;29;20457;-75
2021/01/04 05:04:26;;;;;;;32.40;21.87;;;6.50;67.50;;;;;;4900014;29;20508;-74
2021/01/04 05:06:56;;;;;;;30.67;21.37;;;6.40;67.60;;;;;;4898846;29;20472;-74
2021/01/04 05:09:45;;;;;;;31.57;23.63;;;6.40;67.70;;;;;;4899942;29;20467;-75
2021/01/04 05:12:29;;;;;;;30.57;23.30;;;6.40;67.80;;;;;;4897633;29;20506;-75
2021/01/04 05:15:04;;;;;;;33.47;24.53;;;6.40;67.80;;;;;;4897453;29;20456;-76
2021/01/04 05:17:59;;;;;;;35.00;24.63;;;6.40;67.80;;;;;;4881309;29;20836;-75
2021/01/04 05:21:01;;;;;;;27.47;22.17;;;6.40;67.80;;;;;;4883711;29;20472;-75
2021/01/04 05:23:52;;;;;;;32.20;24.10;;;6.40;67.70;;;;;;4887089;29;20489;-75
2021/01/04 05:26:42;;;;;;;31.63;23.23;;;6.40;67.80;;;;;;4898959;29;20469;-77
2021/01/04 05:29:45;;;;;;;27.43;22.00;;;6.40;67.80;;;;;;4899320;29;20470;-77
2021/01/04 05:32:33;;;;;;;29.53;21.13;;;6.40;67.70;;;;;;4877378;29;20526;-76
2021/01/04 05:35:02;;;;;;;29.40;22.77;;;6.40;67.60;;;;;;4896392;29;20463;-77
2021/01/04 05:37:38;;;;;;;28.13;22.57;;;6.40;67.60;;;;;;4887653;29;20880;-78
2021/01/04 05:40:18;;;;;;;27.97;22.37;;;6.40;67.60;;;;;;4896477;29;20546;-77
2021/01/04 05:43:06;;;;;;;29.70;20.93;;;6.40;67.60;;;;;;4896787;29;21037;-75
2021/01/04 05:45:37;;;;;;;30.90;22.27;;;6.40;67.70;;;;;;4891657;29;20888;-76
2021/01/04 05:48:16;;;;;;;31.27;24.27;;;6.40;67.80;;;;;;4897174;29;20457;-76
2021/01/04 05:50:53;;;;;;;29.20;22.20;;;6.40;67.80;;;;;;4897930;29;20457;-76
2021/01/04 05:53:20;;;;;;;31.23;23.33;;;6.40;67.80;;;;;;4888034;29;20502;-76
2021/01/04 05:55:54;;;;;;;34.40;22.87;;;6.40;67.50;;;;;;4897791;29;20469;-76
2021/01/04 05:58:27;;;;;;;30.23;22.53;;;6.40;67.50;;;;;;4898264;29;20476;-77
2021/01/04 06:00:53;;;;;;;27.43;20.40;;;6.40;67.50;;;;;;4898135;29;20491;-77
2021/01/04 06:03:22;;;;;;;30.07;22.43;;;6.40;67.80;;;;;;4898818;29;20500;-78
2021/01/04 06:05:51;;;;;;;28.43;21.50;;;6.40;67.70;;;;;;4897723;29;20463;-76
2021/01/04 06:08:23;;;;;;;26.60;22.23;;;6.40;67.60;;;;;;4897285;29;20524;-75
2021/01/04 06:10:50;;;;;;;31.93;22.23;;;6.40;67.60;;;;;;4898604;29;20460;-77
2021/01/04 06:13:19;;;;;;;35.53;23.93;;;6.40;67.50;;;;;;4896901;29;20483;-75
2021/01/04 06:15:47;;;;;;;24.60;20.87;;;6.40;67.50;;;;;;4898321;29;21093;-76
2021/01/04 06:18:25;;;;;;;28.10;21.80;;;6.40;67.40;;;;;;4898936;29;20596;-75
2021/01/04 06:21:21;;;;;;;24.10;20.73;;;6.40;67.30;;;;;;4897362;29;20477;-77
2021/01/04 06:23:49;;;;;;;25.70;20.07;;;6.40;67.30;;;;;;4898705;29;20502;-76
2021/01/04 06:26:20;;;;;;;27.37;22.07;;;6.40;67.50;;;;;;4897195;29;20971;-77
2021/01/04 06:28:50;;;;;;;35.43;23.27;;;6.40;67.60;;;;;;4898574;29;20472;-78
2021/01/04 06:31:30;;;;;;;32.90;22.97;;;6.40;67.50;;;;;;4897054;29;20481;-78
2021/01/04 06:33:59;;;;;;;25.77;21.10;;;6.40;67.50;;;;;;4896788;29;20468;-78
2021/01/04 06:36:26;;;;;;;37.00;23.77;;;6.40;67.60;;;;;;4896106;29;20543;-77
2021/01/04 06:38:53;;;;;;;31.10;23.63;;;6.40;67.60;;;;;;4897533;29;20451;-77
2021/01/04 06:41:31;;;;;;;28.97;23.17;;;6.40;67.60;;;;;;4898118;29;20472;-76
2021/01/04 06:44:10;;;;;;;28.27;21.03;;;6.40;67.70;;;;;;4896721;29;20471;-74
2021/01/04 06:47:15;;;;;;;29.20;23.23;;;6.40;67.80;;;;;;4897511;29;20491;-76
2021/01/04 06:49:53;;;;;;;33.77;23.93;;;6.40;67.90;;;;;;4897520;29;21010;-76
2021/01/04 06:52:51;;;;;;;29.00;22.30;;;6.40;68.00;;;;;;4894590;29;20475;-74
2021/01/04 06:55:40;;;;;;;29.30;23.13;;;6.40;68.00;;;;;;4896886;29;20484;-76
2021/01/04 06:58:34;;;;;;;26.33;20.33;;;6.40;67.80;;;;;;4855454;29;20545;-76
2021/01/04 07:01:19;;;;;;;26.10;21.10;;;6.50;67.80;;;;;;4894936;29;20891;-76
2021/01/04 07:04:00;;;;;;;34.10;25.03;;;6.40;67.80;;;;;;4897470;29;20543;-76
2021/01/04 07:06:56;;;;;;;28.67;23.27;;;6.50;67.80;;;;;;4896704;29;20468;-79
2021/01/04 07:10:08;;;;;;;31.03;23.30;;;6.40;67.70;;;;;;4897908;29;20458;-78
2021/01/04 07:12:53;;;;;;;32.73;21.90;;;6.50;67.70;;;;;;4895056;29;20456;-78
2021/01/04 07:15:27;;;;;;;32.93;23.67;;;6.40;67.70;;;;;;4885022;29;20471;-81
2021/01/04 07:18:20;;;;;;;34.93;22.77;;;6.40;67.80;;;;;;4894967;29;20510;-81
2021/01/04 07:21:14;;;;;;;30.43;22.53;;;6.40;67.80;;;;;;4896707;29;20877;-75
2021/01/04 07:23:55;;;;;;;26.90;20.27;;;6.50;67.80;;;;;;4897029;29;20491;-78
2021/01/04 07:26:34;;;;;;;36.37;24.83;;;6.50;67.80;;;;;;4896793;29;20464;-79
2021/01/04 07:29:21;;;;;;;29.90;21.70;;;6.50;67.70;;;;;;4891726;29;20464;-77
2021/01/04 07:31:55;;;;;;;29.27;23.00;;;6.50;67.60;;;;;;4893278;29;20497;-77
2021/01/04 07:34:28;;;;;;;29.30;21.17;;;6.50;67.50;;;;;;4897062;29;20456;-76
2021/01/04 07:37:08;;;;;;;27.60;21.83;;;6.50;67.50;;;;;;4891095;29;20895;-76
2021/01/04 07:39:44;;;;;;;29.90;21.60;;;6.50;67.50;;;;;;4897211;29;20516;-77
2021/01/04 07:42:38;;;;;;;28.53;21.60;;;6.50;67.50;;;;;;4896037;29;20549;-77
2021/01/04 07:45:38;;;;;;;30.07;21.33;;;6.50;67.50;;;;;;4897063;29;20924;-78
2021/01/04 07:48:46;;;;;;;28.33;21.17;;;6.50;67.50;;;;;;4860975;29;20469;-75
2021/01/04 07:51:35;;;;;;;27.20;20.43;;;6.50;67.50;;;;;;4875193;29;20496;-74
2021/01/04 07:54:34;;;;;;;33.20;22.50;;;6.40;67.40;;;;;;4878537;29;20452;-75
2021/01/04 07:57:45;;;;;;;30.60;22.73;;;6.40;67.40;;;;;;4883309;29;20467;-75
2021/01/04 08:00:43;;;;;;;30.00;20.20;;;6.40;67.60;;;;;;4895734;29;20543;-77
2021/01/04 08:03:54;;;;;;;26.53;21.50;;;6.40;67.60;;;;;;4884887;29;21014;-75
2021/01/04 08:06:48;;;;;;;28.17;20.90;;;6.40;67.80;;;;;;4898862;29;20474;-77
2021/01/04 08:09:32;;;;;;;28.10;22.00;;;6.40;67.80;;;;;;4900260;29;20829;-75
2021/01/04 08:12:27;;;;;;;30.40;22.17;;;6.40;67.70;;;;;;4899267;29;20483;-76
2021/01/04 08:15:27;;;;;;;26.20;21.17;;;6.50;67.80;;;;;;4899042;29;20554;-78
2021/01/04 08:17:59;;;;;;;30.03;22.00;;;6.50;67.90;;;;;;4889399;29;20467;-76
2021/01/04 08:20:26;;;;;;;27.83;21.67;;;6.50;67.80;;;;;;4900369;29;20467;-76
2021/01/04 08:23:15;;;;;;;29.97;20.40;;;6.50;67.70;;;;;;4898627;29;20495;-75
2021/01/04 08:26:01;;;;;;;26.67;21.93;;;6.60;67.50;;;;;;4884521;29;20561;-74
2021/01/04 08:28:37;;;;;;;28.67;22.87;;;6.60;67.60;;;;;;4900319;29;20538;-75
2021/01/04 08:31:14;;;;;;;28.90;22.57;;;6.60;67.70;;;;;;4899547;29;21043;-75
2021/01/04 08:33:49;;;;;;;38.80;24.10;;;6.60;67.70;;;;;;4899738;29;20537;-76
2021/01/04 08:36:21;;;;;;;31.33;22.00;;;6.60;67.70;;;;;;4900440;29;20495;-76
2021/01/04 08:38:50;;;;;;;30.57;23.83;;;6.70;67.60;;;;;;4899282;29;20475;-77
2021/01/04 08:41:28;;;;;;;28.20;21.63;;;6.70;67.60;;;;;;4899485;29;20984;-76
2021/01/04 08:43:54;;;;;;;34.50;22.70;;;6.70;67.60;;;;;;4899616;29;20527;-76
2021/01/04 08:46:33;;;;;;;24.67;20.73;;;6.80;67.60;;;;;;4899017;29;20508;-77
2021/01/04 08:49:16;;;;;;;32.00;22.07;;;6.80;67.30;;;;;;4897426;29;20956;-77
2021/01/04 08:51:44;;;;;;;30.73;22.93;;;6.80;67.50;;;;;;4898752;29;20479;-77
2021/01/04 08:54:29;;;;;;;28.70;21.67;;;6.80;67.30;;;;;;4899285;29;20462;-78
2021/01/04 08:57:09;;;;;;;28.43;21.20;;;6.80;67.30;;;;;;4897601;29;20967;-76
2021/01/04 08:59:36;;;;;;;27.20;21.63;;;6.80;67.20;;;;;;4900033;29;20534;-77
2021/01/04 09:02:20;;;;;;;27.70;21.97;;;6.80;67.00;;;;;;4899435;29;20981;-77
2021/01/04 09:04:59;;;;;;;28.50;19.50;;;6.80;66.90;;;;;;4898869;29;20474;-77
2021/01/04 09:07:25;;;;;;;32.10;22.37;;;6.80;66.90;;;;;;4893279;29;20460;-77
2021/01/04 09:09:56;;;;;;;35.10;22.97;;;6.80;66.90;;;;;;4899330;29;20459;-77
2021/01/04 09:12:38;;;;;;;28.50;22.70;;;6.80;66.90;;;;;;4898735;29;21023;-76
2021/01/04 09:15:12;;;;;;;28.17;21.97;;;6.80;66.60;;;;;;4898264;29;20467;-76
2021/01/04 09:17:45;;;;;;;31.03;21.93;;;6.80;66.70;;;;;;4896546;29;20471;-77
2021/01/04 09:20:44;;;;;;;24.83;20.77;;;6.80;66.70;;;;;;4898544;29;20453;-77
2021/01/04 09:23:23;;;;;;;29.33;22.90;;;6.80;66.60;;;;;;4898892;29;20495;-77
2021/01/04 09:25:51;;;;;;;30.80;22.50;;;6.80;66.80;;;;;;4898320;29;20479;-77
2021/01/04 09:28:21;;;;;;;31.40;22.60;;;6.90;66.90;;;;;;4898863;29;20457;-76
2021/01/04 09:30:48;;;;;;;34.30;23.37;;;6.90;66.60;;;;;;4898140;29;20561;-77
2021/01/04 09:33:17;;;;;;;32.53;22.13;;;6.90;66.50;;;;;;4898345;29;20997;-77
2021/01/04 09:35:45;;;;;;;33.03;23.13;;;6.90;66.50;;;;;;4895418;29;20463;-77
2021/01/04 09:38:19;;;;;;;30.40;21.93;;;6.90;66.50;;;;;;4895885;29;20551;-76
2021/01/04 09:40:49;;;;;;;30.03;22.90;;;7.00;66.60;;;;;;4899044;29;20454;-76
2021/01/04 09:43:20;;;;;;;30.37;20.13;;;7.00;66.60;;;;;;4897475;29;21306;-77
2021/01/04 09:45:46;;;;;;;33.10;20.77;;;7.00;66.60;;;;;;4897732;29;22308;-76
2021/01/04 09:48:37;;;;;;;29.73;21.77;;;7.00;66.40;;;;;;4897886;29;20975;-76
2021/01/04 09:51:08;;;;;;;29.73;21.20;;;7.00;66.30;;;;;;4897830;29;20482;-76
2021/01/04 09:53:37;;;;;;;29.60;22.23;;;6.90;66.40;;;;;;4897243;29;20464;-75
2021/01/04 09:56:06;;;;;;;29.57;21.47;;;7.00;66.50;;;;;;4897267;29;21106;-75
2021/01/04 09:58:33;;;;;;;32.00;22.97;;;7.00;66.40;;;;;;4897506;29;20463;-77
2021/01/04 10:01:07;;;;;;;32.90;23.43;;;7.00;66.00;;;;;;4897514;29;20481;-78
2021/01/04 10:03:34;;;;;;;28.67;21.40;;;7.00;66.00;;;;;;4897603;29;21007;-76
2021/01/04 10:06:00;;;;;;;31.73;21.10;;;7.00;66.00;;;;;;4897760;29;20476;-77
2021/01/04 10:08:29;;;;;;;566.73;265.00;;;7.00;66.10;;;;;;4899874;29;20471;-75
2021/01/04 10:10:59;;;;;;;176.10;101.70;;;7.00;66.10;;;;;;4906108;29;20927;-75
2021/01/04 10:13:28;;;;;;;68.33;46.37;;;7.00;66.20;;;;;;4897908;29;20459;-75
2021/01/04 10:15:56;;;;;;;31.90;25.30;;;7.10;66.00;;;;;;4898356;29;20460;-75
2021/01/04 10:18:41;;;;;;;30.27;22.17;;;7.10;65.90;;;;;;4897670;29;20473;-75
2021/01/04 10:21:16;;;;;;;39.57;24.30;;;7.10;65.90;;;;;;4880042;29;20550;-75
2021/01/04 10:23:49;;;;;;;31.47;21.07;;;7.10;65.80;;;;;;4893216;29;21001;-74
2021/01/04 10:26:16;;;;;;;29.87;22.40;;;7.10;66.00;;;;;;4896899;29;20973;-74
2021/01/04 10:28:43;;;;;;;72.97;44.27;;;7.10;65.80;;;;;;4897948;29;20466;-74
2021/01/04 10:31:25;;;;;;;51.70;32.33;;;7.10;65.80;;;;;;4897026;29;20486;-76
2021/01/04 10:34:10;;;;;;;32.43;24.13;;;7.10;65.90;;;;;;4898014;29;20495;-75
2021/01/04 10:36:38;;;;;;;34.70;25.03;;;7.20;65.90;;;;;;4897884;29;20984;-75
2021/01/04 10:39:16;;;;;;;41.67;24.27;;;7.10;65.80;;;;;;4894759;29;20479;-75
2021/01/04 10:42:31;;;;;;;29.30;23.87;;;7.20;65.90;;;;;;4898068;29;20881;-76
2021/01/04 10:48:14;;;;;;;30.13;22.13;;;7.20;65.40;;;;;;4793930;29;20443;-76
2021/01/04 10:50:43;;;;;;;27.37;19.07;;;7.20;65.40;;;;;;4839346;29;20447;-76
2021/01/04 10:53:11;;;;;;;27.10;20.63;;;7.30;65.40;;;;;;4856471;29;20472;-73
2021/01/04 10:55:51;;;;;;;28.53;20.90;;;7.30;65.20;;;;;;4878899;29;20524;-75
2021/01/04 10:58:25;;;;;;;28.50;21.40;;;7.20;64.70;;;;;;4878784;29;20470;-75
2021/01/04 11:03:52;;;;;;;24.60;21.13;;;7.20;65.00;;;;;;4853001;29;20494;-76
2021/01/04 11:06:24;;;;;;;26.80;20.10;;;7.20;65.00;;;;;;4876403;29;20481;-75
2021/01/04 11:08:51;;;;;;;32.60;22.27;;;7.10;64.90;;;;;;4878313;29;20959;-76
2021/01/04 11:11:34;;;;;;;29.23;19.23;;;7.10;65.10;;;;;;4878722;29;20467;-75
2021/01/04 11:14:09;;;;;;;25.20;19.83;;;7.20;65.20;;;;;;4878050;29;20566;-76
2021/01/04 11:16:44;;;;;;;309.43;118.57;;;7.10;64.70;;;;;;4879106;29;20505;-77
2021/01/04 11:19:11;;;;;;;34.27;23.50;;;7.10;64.90;;;;;;4877748;29;20516;-75
2021/01/04 11:21:39;;;;;;;26.23;21.43;;;7.20;65.00;;;;;;4877209;29;20468;-74
2021/01/04 11:24:07;;;;;;;28.37;20.80;;;7.10;63.90;;;;;;4878382;29;20488;-75
2021/01/04 11:26:35;;;;;;;25.47;19.93;;;7.00;64.10;;;;;;4877121;29;20485;-74
2021/01/04 11:29:01;;;;;;;23.60;18.10;;;7.00;64.30;;;;;;4877951;29;20461;-75
2021/01/04 11:31:33;;;;;;;21.60;17.53;;;7.00;64.50;;;;;;4876862;29;20563;-75
2021/01/04 11:34:01;;;;;;;27.70;20.57;;;7.00;64.30;;;;;;4880401;29;20467;-75
2021/01/04 11:36:28;;;;;;;19.17;15.60;;;7.00;64.20;;;;;;4891610;29;20485;-75
2021/01/04 11:38:57;;;;;;;22.70;18.47;;;7.10;64.10;;;;;;4878666;29;20460;-75
2021/01/04 11:41:24;;;;;;;20.90;16.77;;;7.10;63.80;;;;;;4878060;29;20613;-75
2021/01/04 11:43:51;;;;;;;21.33;17.20;;;7.20;63.80;;;;;;4877517;29;20502;-75
2021/01/04 11:46:19;;;;;;;19.53;15.60;;;7.20;63.20;;;;;;4888596;29;20986;-75
2021/01/04 11:48:46;;;;;;;20.53;16.50;;;7.20;63.10;;;;;;4896579;29;20479;-75
2021/01/04 11:51:19;;;;;;;19.77;15.47;;;7.20;62.80;;;;;;4896406;29;20978;-75
2021/01/04 11:53:47;;;;;;;23.10;17.00;;;7.30;62.50;;;;;;4883358;29;20469;-75
2021/01/04 11:56:14;;;;;;;20.43;15.73;;;7.30;62.10;;;;;;4891210;29;21036;-75
2021/01/04 11:58:41;;;;;;;20.60;14.63;;;7.30;61.80;;;;;;4896026;29;20532;-75
2021/01/04 12:01:08;;;;;;;17.37;14.10;;;7.30;61.80;;;;;;4893975;29;20453;-75
2021/01/04 12:03:34;;;;;;;18.93;15.63;;;7.30;61.70;;;;;;4896618;29;20506;-75
2021/01/04 12:06:01;;;;;;;15.60;13.70;;;7.30;61.40;;;;;;4896280;29;20467;-75
2021/01/04 12:08:27;;;;;;;15.67;12.67;;;7.30;61.10;;;;;;4897206;29;20554;-75
2021/01/04 12:10:54;;;;;;;15.30;11.73;;;7.40;61.20;;;;;;4895844;29;20473;-74
2021/01/04 12:13:26;;;;;;;13.93;11.80;;;7.30;60.60;;;;;;4897064;29;20578;-74
2021/01/04 12:16:03;;;;;;;14.70;12.57;;;7.40;60.30;;;;;;4897123;29;20498;-75
2021/01/04 12:18:47;;;;;;;13.57;11.80;;;7.40;59.80;;;;;;4896594;29;20886;-75
2021/01/04 12:21:28;;;;;;;12.67;9.87;;;7.40;59.30;;;;;;4896181;29;20586;-75
2021/01/04 12:24:04;;;;;;;;;;;;;;;;;;;;;
2021/01/04 12:26:34;;;;;;;12.97;11.10;;;7.20;58.40;;;;;;4894882;29;20490;-75
2021/01/04 12:29:09;;;;;;;14.53;11.43;;;7.20;58.50;;;;;;4896323;29;20530;-74
2021/01/04 12:31:38;;;;;;;12.50;11.30;;;7.20;58.60;;;;;;4895864;29;20970;-74
2021/01/04 12:34:09;;;;;;;15.53;12.80;;;7.20;58.40;;;;;;4896536;29;20976;-75
2021/01/04 12:36:41;;;;;;;13.53;12.13;;;7.10;58.20;;;;;;4895854;29;20531;-75
2021/01/04 12:39:08;;;;;;;16.43;13.33;;;7.10;58.20;;;;;;4878148;29;20461;-74
2021/01/04 12:41:42;;;;;;;15.10;13.03;;;7.10;58.10;;;;;;4889442;29;20546;-75
2021/01/04 12:44:31;;;;;;;18.00;11.97;;;7.00;57.90;;;;;;4895435;29;20559;-75
2021/01/04 12:47:00;;;;;;;14.37;11.87;;;7.00;57.90;;;;;;4891706;29;20531;-75
2021/01/04 12:49:31;;;;;;;12.87;11.50;;;7.00;58.00;;;;;;4898221;29;20465;-74
2021/01/04 12:52:04;;;;;;;17.27;12.70;;;6.90;58.30;;;;;;4895830;29;20812;-76
2021/01/04 12:54:31;;;;;;;17.43;13.37;;;6.90;58.30;;;;;;4898789;29;20797;-75
2021/01/04 12:57:01;;;;;;;16.90;13.93;;;6.90;58.20;;;;;;4898814;29;21018;-74
2021/01/04 12:59:37;;;;;;;17.10;13.63;;;7.00;58.40;;;;;;4899981;29;20463;-75
2021/01/04 13:05:13;;;;;;;20.83;13.33;;;6.90;57.80;;;;;;4876470;29;20465;-75
2021/01/04 13:07:51;;;;;;;17.37;14.13;;;6.90;58.00;;;;;;4898262;29;20473;-75
2021/01/04 13:10:30;;;;;;;18.83;13.70;;;6.90;57.80;;;;;;4898526;29;20454;-76
2021/01/04 13:12:56;;;;;;;19.50;14.80;;;6.90;57.70;;;;;;4899633;29;20464;-75
2021/01/04 13:15:23;;;;;;;19.03;14.77;;;6.90;57.60;;;;;;4899336;29;20475;-73
2021/01/04 13:17:49;;;;;;;19.83;15.03;;;6.80;57.10;;;;;;4898599;29;21007;-75
2021/01/04 13:20:17;;;;;;;20.20;16.30;;;6.80;57.10;;;;;;4897997;29;20512;-75
2021/01/04 13:22:44;;;;;;;20.73;15.80;;;6.90;57.10;;;;;;4898748;29;20510;-73
2021/01/04 13:25:12;;;;;;;20.93;16.00;;;6.90;57.20;;;;;;4899018;29;20464;-75
2021/01/04 13:27:39;;;;;;;19.43;14.73;;;6.90;57.40;;;;;;4898700;29;20480;-73
2021/01/04 13:30:07;;;;;;;20.13;14.53;;;6.90;57.60;;;;;;4899065;29;20474;-73
2021/01/04 13:32:34;;;;;;;17.30;14.33;;;6.80;57.80;;;;;;4899172;29;20467;-75
2021/01/04 13:35:01;;;;;;;20.53;15.10;;;6.80;57.90;;;;;;4898865;29;20460;-74